createdAt,value
2023-05-21T00:01:23.820Z,18.70
2023-05-21T00:03:50.680Z,27.13
2023-05-21T00:06:17.200Z,19.10
2023-05-21T00:08:43.585Z,20.87
2023-05-21T00:11:09.986Z,22.40
2023-05-21T00:13:36.449Z,20.63
2023-05-21T00:16:02.866Z,18.67
2023-05-21T00:18:32.112Z,18.33
2023-05-21T00:20:59.416Z,20.63
2023-05-21T00:23:26.380Z,19.57
2023-05-21T00:25:53.206Z,19.33
2023-05-21T00:28:19.568Z,19.73
2023-05-21T00:30:47.189Z,21.10
2023-05-21T00:33:13.838Z,24.10
2023-05-21T00:35:40.282Z,20.20
2023-05-21T00:38:07.330Z,18.03
2023-05-21T00:40:34.884Z,18.47
2023-05-21T00:43:01.956Z,19.67
2023-05-21T00:45:29.491Z,20.43
2023-05-21T00:47:56.305Z,18.97
2023-05-21T00:50:23.176Z,19.80
2023-05-21T00:52:50.155Z,17.57
2023-05-21T00:55:16.677Z,17.10
2023-05-21T00:57:43.228Z,19.47
2023-05-21T01:00:10.735Z,17.63
2023-05-21T01:02:37.966Z,19.40
2023-05-21T01:05:08.031Z,18.60
2023-05-21T01:07:38.680Z,15.97
2023-05-21T01:10:07.437Z,18.47
2023-05-21T01:12:35.493Z,18.97
2023-05-21T01:15:05.669Z,19.40
2023-05-21T01:17:33.984Z,20.20
2023-05-21T01:20:01.372Z,16.77
2023-05-21T01:22:32.468Z,16.87
2023-05-21T01:24:59.020Z,17.93
2023-05-21T01:27:25.571Z,16.10
2023-05-21T01:29:51.976Z,17.43
2023-05-21T01:32:42.310Z,18.17
2023-05-21T01:35:13.029Z,17.30
2023-05-21T01:38:12.255Z,21.27
2023-05-21T01:40:47.442Z,17.97
2023-05-21T01:43:15.256Z,17.60
2023-05-21T01:45:44.978Z,19.93
2023-05-21T01:48:12.787Z,17.70
2023-05-21T01:50:40.631Z,18.50
2023-05-21T01:53:07.348Z,17.50
2023-05-21T01:55:33.751Z,16.33
2023-05-21T01:58:02.281Z,17.60
2023-05-21T02:00:29.402Z,19.50
2023-05-21T02:02:55.837Z,16.80
2023-05-21T02:05:22.360Z,20.67
2023-05-21T02:07:52.616Z,17.53
2023-05-21T02:10:19.296Z,17.97
2023-05-21T02:12:45.953Z,20.03
2023-05-21T02:15:14.136Z,17.67
2023-05-21T02:17:40.501Z,17.10
2023-05-21T02:20:13.634Z,16.83
2023-05-21T02:22:41.547Z,16.33
2023-05-21T02:25:09.220Z,18.13
2023-05-21T02:27:37.669Z,20.23
2023-05-21T02:30:06.850Z,16.90
2023-05-21T02:32:36.547Z,16.90
2023-05-21T02:35:04.343Z,17.30
2023-05-21T02:37:34.375Z,16.57
2023-05-21T02:40:02.127Z,17.97
2023-05-21T02:42:28.441Z,20.97
2023-05-21T02:44:54.858Z,17.70
2023-05-21T02:47:22.268Z,16.90
2023-05-21T02:49:49.859Z,16.70
2023-05-21T02:52:18.498Z,17.20
2023-05-21T02:54:45.684Z,15.80
2023-05-21T02:57:12.345Z,20.47
2023-05-21T02:59:38.967Z,17.00
2023-05-21T03:02:05.578Z,20.67
2023-05-21T03:04:33.042Z,16.70
2023-05-21T03:07:02.154Z,17.20
2023-05-21T03:09:28.506Z,17.13
2023-05-21T03:11:54.991Z,16.60
2023-05-21T03:14:24.607Z,17.97
2023-05-21T03:16:51.456Z,18.80
2023-05-21T03:19:17.864Z,16.93
2023-05-21T03:21:44.558Z,16.23
2023-05-21T03:24:13.494Z,17.40
2023-05-21T03:26:39.924Z,16.23
2023-05-21T03:29:06.288Z,16.70
2023-05-21T03:31:32.674Z,16.57
2023-05-21T03:33:59.020Z,17.63
2023-05-21T03:36:25.428Z,14.47
2023-05-21T03:38:51.786Z,17.83
2023-05-21T03:41:18.233Z,18.30
2023-05-21T03:43:44.564Z,17.27
2023-05-21T03:46:11.040Z,18.13
2023-05-21T03:48:37.506Z,17.13
2023-05-21T03:51:04.069Z,18.23
2023-05-21T03:53:30.565Z,17.77
2023-05-21T03:55:56.944Z,20.53
2023-05-21T03:58:23.572Z,18.33
2023-05-21T04:00:50.454Z,18.70
2023-05-21T04:03:18.009Z,20.33
2023-05-21T04:05:44.813Z,16.00
2023-05-21T04:08:11.258Z,16.67
2023-05-21T04:10:37.636Z,17.43
2023-05-21T04:13:04.045Z,16.67
2023-05-21T04:15:30.524Z,16.50
2023-05-21T04:17:56.964Z,17.37
2023-05-21T04:20:23.485Z,16.87
2023-05-21T04:22:49.938Z,19.20
2023-05-21T04:25:16.309Z,16.47
2023-05-21T04:27:43.450Z,16.57
2023-05-21T04:30:11.119Z,16.50
2023-05-21T04:32:38.481Z,14.27
2023-05-21T04:35:05.452Z,16.53
2023-05-21T04:37:34.948Z,15.00
2023-05-21T04:40:02.484Z,16.47
2023-05-21T04:42:29.914Z,15.77
2023-05-21T04:44:59.241Z,15.93
2023-05-21T04:47:25.699Z,17.57
2023-05-21T04:49:53.328Z,18.30
2023-05-21T04:52:19.740Z,18.30
2023-05-21T04:54:47.764Z,15.83
2023-05-21T04:57:14.220Z,15.47
2023-05-21T04:59:41.402Z,16.43
2023-05-21T05:02:07.793Z,15.07
2023-05-21T05:04:34.171Z,14.73
2023-05-21T05:07:00.544Z,15.03
2023-05-21T05:09:27.030Z,14.27
2023-05-21T05:11:53.443Z,16.57
2023-05-21T05:14:19.875Z,14.00
2023-05-21T05:16:48.152Z,20.97
2023-05-21T05:19:14.800Z,16.07
2023-05-21T05:21:41.228Z,15.17
2023-05-21T05:24:07.666Z,16.60
2023-05-21T05:26:34.022Z,16.00
2023-05-21T05:29:00.431Z,15.37
2023-05-21T05:31:27.189Z,16.80
2023-05-21T05:33:53.748Z,14.50
2023-05-21T05:36:20.126Z,14.60
2023-05-21T05:38:46.496Z,15.30
2023-05-21T05:41:12.858Z,15.43
2023-05-21T05:43:39.200Z,17.10
2023-05-21T05:46:05.834Z,15.77
2023-05-21T05:48:32.342Z,14.60
2023-05-21T05:50:58.752Z,14.20
2023-05-21T05:53:25.186Z,15.30
2023-05-21T05:55:51.653Z,14.10
2023-05-21T05:58:18.059Z,15.13
2023-05-21T06:00:44.669Z,19.50
2023-05-21T06:03:12.071Z,16.03
2023-05-21T06:05:39.014Z,13.70
2023-05-21T06:08:06.308Z,12.73
2023-05-21T06:10:32.661Z,14.53
2023-05-21T06:12:59.144Z,14.60
2023-05-21T06:15:25.568Z,12.55
2023-05-21T06:17:51.985Z,14.90
2023-05-21T06:20:18.556Z,13.38
2023-05-21T06:22:45.002Z,13.57
2023-05-21T06:25:11.490Z,16.20
2023-05-21T06:27:38.532Z,14.18
2023-05-21T06:30:05.840Z,15.32
2023-05-21T06:32:32.365Z,16.67
2023-05-21T06:34:58.823Z,15.02
2023-05-21T06:37:26.645Z,14.30
2023-05-21T06:39:53.207Z,14.63
2023-05-21T06:42:19.542Z,11.57
2023-05-21T06:44:46.032Z,12.90
2023-05-21T06:47:12.386Z,14.95
2023-05-21T06:49:38.873Z,12.35
2023-05-21T06:52:05.640Z,12.77
2023-05-21T06:54:32.052Z,12.13
2023-05-21T06:56:58.436Z,15.57
2023-05-21T06:59:24.928Z,12.18
2023-05-21T07:01:51.336Z,13.07
2023-05-21T07:04:17.703Z,13.25
2023-05-21T07:06:44.078Z,13.88
2023-05-21T07:09:10.541Z,14.35
2023-05-21T07:11:36.865Z,12.50
2023-05-21T07:14:03.943Z,12.13
2023-05-21T07:16:32.855Z,13.40
2023-05-21T07:18:59.313Z,12.43
2023-05-21T07:21:25.836Z,14.15
2023-05-21T07:23:52.351Z,11.30
2023-05-21T07:26:18.725Z,12.80
2023-05-21T07:28:45.253Z,11.93
2023-05-21T07:31:12.405Z,10.18
2023-05-21T07:33:38.881Z,12.07
2023-05-21T07:36:05.705Z,13.45
2023-05-21T07:38:32.253Z,13.35
2023-05-21T07:40:58.639Z,11.23
2023-05-21T07:43:25.039Z,11.43
2023-05-21T07:45:51.641Z,11.20
2023-05-21T07:48:18.701Z,11.75
2023-05-21T07:50:49.546Z,13.32
2023-05-21T07:53:16.146Z,11.40
2023-05-21T07:55:47.547Z,10.60
2023-05-21T07:58:18.674Z,12.80
2023-05-21T08:00:47.162Z,12.10
2023-05-21T08:03:16.384Z,11.60
2023-05-21T08:05:50.864Z,12.35
2023-05-21T08:08:22.009Z,11.93
2023-05-21T08:10:48.400Z,12.52
2023-05-21T08:13:16.169Z,13.20
2023-05-21T08:15:42.956Z,11.48
2023-05-21T08:18:09.934Z,13.63
2023-05-21T08:20:36.553Z,15.35
2023-05-21T08:23:03.112Z,12.93
2023-05-21T08:25:29.943Z,12.60
2023-05-21T08:27:56.412Z,11.60
2023-05-21T08:30:22.971Z,12.35
2023-05-21T08:32:49.903Z,12.10
2023-05-21T08:35:16.499Z,16.45
2023-05-21T08:37:42.889Z,10.85
2023-05-21T08:40:11.282Z,10.85
2023-05-21T08:42:45.786Z,15.10
2023-05-21T08:45:14.116Z,15.20
2023-05-21T08:47:44.368Z,12.45
2023-05-21T08:50:13.295Z,12.40
2023-05-21T08:52:40.367Z,12.05
2023-05-21T08:55:08.158Z,12.77
2023-05-21T08:57:34.938Z,11.15
2023-05-21T09:00:01.827Z,12.55
2023-05-21T09:02:33.984Z,11.73
2023-05-21T09:05:03.126Z,11.50
2023-05-21T09:07:34.351Z,10.68
2023-05-21T09:10:11.093Z,12.52
2023-05-21T09:12:37.841Z,12.85
2023-05-21T09:15:05.235Z,13.27
2023-05-21T09:17:31.742Z,12.38
2023-05-21T09:20:12.531Z,13.50
2023-05-21T09:22:42.846Z,10.75
2023-05-21T09:25:11.497Z,10.90
2023-05-21T09:27:38.473Z,12.68
2023-05-21T09:30:10.292Z,13.57
2023-05-21T09:32:37.422Z,12.05
2023-05-21T09:35:09.308Z,11.07
2023-05-21T09:37:47.918Z,13.00
2023-05-21T09:40:19.840Z,13.60
2023-05-21T09:42:48.217Z,13.32
2023-05-21T09:45:22.373Z,11.98
2023-05-21T09:47:50.346Z,11.60
2023-05-21T09:50:21.561Z,13.40
2023-05-21T09:52:50.285Z,11.18
2023-05-21T09:55:17.255Z,11.20
2023-05-21T09:57:45.233Z,11.32
2023-05-21T10:00:27.436Z,9.23
2023-05-21T10:02:55.873Z,10.55
2023-05-21T10:05:26.843Z,11.32
2023-05-21T10:07:56.557Z,11.93
2023-05-21T10:10:23.715Z,10.30
2023-05-21T10:12:57.418Z,12.38
2023-05-21T10:15:25.208Z,10.07
2023-05-21T10:17:52.348Z,11.32
2023-05-21T10:20:18.896Z,10.63
2023-05-21T10:22:45.602Z,9.63
2023-05-21T10:25:15.510Z,15.18
2023-05-21T10:27:41.953Z,12.40
2023-05-21T10:30:09.154Z,10.73
2023-05-21T10:32:35.665Z,10.63
2023-05-21T10:35:02.669Z,11.13
2023-05-21T10:37:29.251Z,11.80
2023-05-21T10:39:56.397Z,11.48
2023-05-21T10:42:31.780Z,9.82
2023-05-21T10:45:04.090Z,11.27
2023-05-21T10:47:42.687Z,9.75
2023-05-21T10:50:41.401Z,13.07
2023-05-21T10:53:13.561Z,8.90
2023-05-21T10:56:06.621Z,9.75
2023-05-21T10:58:51.578Z,10.15
2023-05-21T11:01:21.489Z,10.68
2023-05-21T11:03:50.734Z,11.82
2023-05-21T11:06:25.695Z,11.70
2023-05-21T11:08:55.962Z,10.82
2023-05-21T11:11:44.048Z,10.73
2023-05-21T11:14:28.649Z,10.75
2023-05-21T11:16:55.452Z,10.30
2023-05-21T11:19:21.930Z,11.88
2023-05-21T11:21:51.548Z,12.25
2023-05-21T11:24:21.170Z,11.90
2023-05-21T11:26:47.443Z,12.35
2023-05-21T11:29:14.661Z,12.80
2023-05-21T11:31:47.372Z,11.68
2023-05-21T11:34:14.767Z,12.23
2023-05-21T11:36:42.324Z,11.35
2023-05-21T11:39:17.783Z,12.73
2023-05-21T11:41:58.197Z,12.45
2023-05-21T11:44:56.050Z,11.20
2023-05-21T11:47:23.110Z,12.32
2023-05-21T11:49:49.550Z,11.88
2023-05-21T11:52:15.981Z,13.90
2023-05-21T11:54:46.173Z,12.90
2023-05-21T11:57:15.985Z,10.45
2023-05-21T11:59:42.459Z,10.63
2023-05-21T12:02:08.810Z,10.95
2023-05-21T12:04:36.531Z,12.20
2023-05-21T12:07:09.801Z,14.15
2023-05-21T12:09:44.590Z,11.43
2023-05-21T12:12:16.106Z,10.77
2023-05-21T12:14:48.432Z,11.57
2023-05-21T12:17:19.781Z,11.85
2023-05-21T12:19:47.044Z,12.10
2023-05-21T12:22:16.454Z,11.98
2023-05-21T12:24:46.434Z,14.30
2023-05-21T12:27:13.716Z,14.25
2023-05-21T12:29:42.924Z,11.30
2023-05-21T12:32:12.608Z,12.25
2023-05-21T12:34:47.090Z,12.70
2023-05-21T12:37:22.005Z,10.68
2023-05-21T12:39:50.388Z,9.98
2023-05-21T12:42:17.376Z,11.52
2023-05-21T12:44:46.542Z,12.45
2023-05-21T12:47:13.811Z,11.00
2023-05-21T12:49:45.654Z,10.50
2023-05-21T12:52:13.248Z,12.77
2023-05-21T12:54:41.477Z,9.90
2023-05-21T12:57:08.553Z,10.82
2023-05-21T12:59:56.546Z,11.93
2023-05-21T13:02:26.048Z,12.57
2023-05-21T13:05:01.321Z,10.75
2023-05-21T13:07:29.665Z,14.65
2023-05-21T13:09:56.731Z,10.00
2023-05-21T13:12:24.803Z,10.15
2023-05-21T13:14:53.957Z,10.85
2023-05-21T13:17:21.536Z,9.90
2023-05-21T13:20:11.939Z,8.77
2023-05-21T13:22:42.339Z,11.55
2023-05-21T13:25:15.666Z,10.98
2023-05-21T13:27:43.221Z,9.43
2023-05-21T13:30:11.579Z,9.85
2023-05-21T13:32:39.129Z,13.80
2023-05-21T13:35:05.867Z,11.50
2023-05-21T13:37:37.667Z,9.35
2023-05-21T13:40:05.755Z,9.60
2023-05-21T13:42:32.678Z,9.85
2023-05-21T13:44:59.206Z,13.55
2023-05-21T13:47:25.834Z,10.13
2023-05-21T13:49:52.310Z,10.15
2023-05-21T13:52:19.523Z,11.00
2023-05-21T13:54:45.882Z,9.57
2023-05-21T13:57:12.342Z,8.63
2023-05-21T13:59:40.696Z,13.82
2023-05-21T14:02:08.800Z,11.77
2023-05-21T14:04:38.393Z,9.68
2023-05-21T14:07:06.454Z,10.02
2023-05-21T14:09:32.855Z,11.57
2023-05-21T14:11:59.228Z,10.23
2023-05-21T14:14:25.666Z,11.32
2023-05-21T14:16:52.412Z,10.50
2023-05-21T14:19:19.019Z,10.77
2023-05-21T14:21:45.529Z,11.40
2023-05-21T14:24:12.018Z,12.50
2023-05-21T14:26:40.865Z,11.60
2023-05-21T14:29:10.136Z,11.13
2023-05-21T14:31:36.955Z,11.80
2023-05-21T14:34:03.580Z,10.30
2023-05-21T14:36:31.042Z,9.23
2023-05-21T14:38:57.441Z,10.88
2023-05-21T14:41:26.559Z,9.32
2023-05-21T14:43:53.177Z,10.95
2023-05-21T14:46:19.701Z,10.52
2023-05-21T14:48:48.760Z,11.25
2023-05-21T14:51:15.349Z,10.60
2023-05-21T14:53:42.010Z,8.85
2023-05-21T14:56:08.636Z,11.85
2023-05-21T14:58:35.000Z,10.25
2023-05-21T15:01:02.455Z,11.68
2023-05-21T15:03:28.946Z,9.68
2023-05-21T15:05:55.382Z,8.70
2023-05-21T15:08:22.527Z,9.82
2023-05-21T15:10:48.969Z,8.93
2023-05-21T15:13:15.323Z,11.25
2023-05-21T15:15:41.754Z,10.27
2023-05-21T15:18:08.118Z,10.60
2023-05-21T15:20:34.555Z,9.90
2023-05-21T15:23:15.321Z,9.20
2023-05-21T15:25:43.458Z,9.02
2023-05-21T15:28:09.956Z,9.15
2023-05-21T15:30:36.319Z,12.50
2023-05-21T15:33:02.733Z,11.25
2023-05-21T15:35:29.237Z,9.80
2023-05-21T15:37:55.737Z,11.65
2023-05-21T15:40:22.669Z,12.40
2023-05-21T15:42:50.267Z,9.35
2023-05-21T15:45:16.780Z,9.88
2023-05-21T15:47:43.197Z,11.68
2023-05-21T15:50:10.332Z,10.27
2023-05-21T15:52:36.970Z,10.82
2023-05-21T15:55:03.533Z,10.63
2023-05-21T15:57:30.278Z,10.10
2023-05-21T15:59:56.800Z,9.13
2023-05-21T16:02:23.272Z,12.70
2023-05-21T16:04:51.644Z,10.90
2023-05-21T16:07:18.703Z,11.73
2023-05-21T16:09:45.092Z,9.57
2023-05-21T16:12:11.566Z,9.45
2023-05-21T16:14:37.983Z,9.80
2023-05-21T16:17:04.492Z,10.18
2023-05-21T16:19:31.147Z,12.52
2023-05-21T16:21:57.732Z,11.50
2023-05-21T16:24:24.132Z,10.20
2023-05-21T16:26:50.571Z,11.50
2023-05-21T16:29:16.967Z,11.15
2023-05-21T16:31:43.499Z,12.20
2023-05-21T16:34:09.945Z,10.55
2023-05-21T16:36:38.207Z,10.75
2023-05-21T16:39:04.688Z,10.98
2023-05-21T16:41:31.064Z,10.27
2023-05-21T16:43:57.466Z,12.57
2023-05-21T16:46:23.916Z,11.35
2023-05-21T16:48:50.559Z,9.32
2023-05-21T16:51:16.934Z,10.68
2023-05-21T16:53:43.349Z,10.70
2023-05-21T16:56:09.825Z,13.95
2023-05-21T16:58:36.187Z,10.32
2023-05-21T17:01:03.920Z,10.25
2023-05-21T17:03:32.367Z,10.48
2023-05-21T17:05:58.969Z,11.55
2023-05-21T17:08:25.460Z,10.68
2023-05-21T17:10:52.208Z,9.88
2023-05-21T17:13:22.504Z,11.77
2023-05-21T17:15:52.925Z,11.05
2023-05-21T17:18:19.404Z,10.23
2023-05-21T17:20:45.911Z,10.50
2023-05-21T17:23:12.453Z,12.00
2023-05-21T17:25:39.599Z,10.18
2023-05-21T17:28:06.456Z,10.80
2023-05-21T17:30:33.193Z,12.65
2023-05-21T17:33:01.736Z,9.52
2023-05-21T17:35:28.150Z,10.13
2023-05-21T17:37:54.741Z,10.82
2023-05-21T17:40:23.599Z,10.10
2023-05-21T17:42:51.010Z,11.68
2023-05-21T17:45:17.542Z,10.38
2023-05-21T17:47:43.953Z,14.15
2023-05-21T17:50:10.616Z,9.55
2023-05-21T17:52:36.986Z,12.90
2023-05-21T17:55:03.653Z,11.07
2023-05-21T17:57:30.009Z,11.10
2023-05-21T17:59:56.543Z,10.77
2023-05-21T18:02:23.499Z,11.52
2023-05-21T18:04:49.965Z,10.20
2023-05-21T18:07:16.515Z,10.10
2023-05-21T18:09:42.966Z,11.20
2023-05-21T18:12:09.399Z,11.85
2023-05-21T18:14:35.748Z,12.40
2023-05-21T18:17:02.475Z,11.13
2023-05-21T18:19:29.064Z,10.52
2023-05-21T18:21:56.552Z,10.27
2023-05-21T18:24:23.002Z,11.27
2023-05-21T18:26:49.386Z,10.85
2023-05-21T18:29:15.806Z,10.55
2023-05-21T18:31:44.112Z,11.93
2023-05-21T18:34:11.021Z,9.93
2023-05-21T18:36:40.124Z,10.95
2023-05-21T18:39:07.903Z,12.07
2023-05-21T18:41:34.460Z,12.25
2023-05-21T18:44:03.755Z,12.30
2023-05-21T18:46:31.555Z,11.70
2023-05-21T18:48:59.705Z,15.07
2023-05-21T18:51:26.126Z,13.60
2023-05-21T18:53:52.466Z,15.05
2023-05-21T18:56:18.864Z,11.80
2023-05-21T18:58:45.327Z,12.32
2023-05-21T19:01:11.731Z,11.20
2023-05-21T19:03:38.305Z,11.23
2023-05-21T19:06:04.879Z,13.82
2023-05-21T19:08:31.249Z,12.63
2023-05-21T19:10:57.706Z,9.98
2023-05-21T19:13:24.134Z,11.80
2023-05-21T19:15:50.736Z,11.50
2023-05-21T19:18:17.266Z,16.42
2023-05-21T19:20:43.712Z,12.68
2023-05-21T19:23:10.422Z,11.68
2023-05-21T19:25:37.215Z,14.80
2023-05-21T19:28:03.751Z,13.43
2023-05-21T19:30:30.250Z,12.13
2023-05-21T19:32:56.826Z,12.93
2023-05-21T19:35:23.276Z,14.05
2023-05-21T19:37:49.876Z,14.98
2023-05-21T19:40:17.672Z,21.50
2023-05-21T19:42:44.537Z,27.73
2023-05-21T19:45:11.841Z,29.23
2023-05-21T19:47:40.961Z,26.08
2023-05-21T19:50:08.100Z,21.30
2023-05-21T19:52:34.582Z,21.58
2023-05-21T19:55:04.727Z,21.50
2023-05-21T19:57:32.346Z,22.50
2023-05-21T19:59:59.079Z,18.88
2023-05-21T20:02:26.556Z,18.48
2023-05-21T20:04:56.640Z,14.20
2023-05-21T20:07:23.387Z,15.63
2023-05-21T20:09:50.317Z,18.30
2023-05-21T20:12:16.684Z,14.88
2023-05-21T20:14:46.576Z,13.75
2023-05-21T20:17:14.389Z,16.85
2023-05-21T20:19:40.953Z,16.58
2023-05-21T20:22:07.388Z,14.40
2023-05-21T20:24:33.795Z,15.65
2023-05-21T20:27:01.433Z,15.13
2023-05-21T20:29:28.713Z,12.90
2023-05-21T20:31:55.279Z,14.70
2023-05-21T20:34:21.788Z,16.35
2023-05-21T20:36:48.345Z,14.35
2023-05-21T20:39:15.475Z,15.10
2023-05-21T20:41:44.738Z,15.13
2023-05-21T20:44:11.857Z,13.88
2023-05-21T20:46:38.870Z,12.45
2023-05-21T20:49:05.769Z,14.48
2023-05-21T20:51:32.313Z,11.70
2023-05-21T20:53:59.025Z,13.35
2023-05-21T20:56:40.089Z,16.75
2023-05-21T20:59:11.807Z,14.27
2023-05-21T21:01:40.451Z,12.90
2023-05-21T21:04:07.010Z,14.05
2023-05-21T21:06:33.788Z,12.73
2023-05-21T21:09:00.182Z,14.73
2023-05-21T21:11:27.053Z,12.93
2023-05-21T21:13:53.514Z,14.02
2023-05-21T21:16:19.957Z,13.90
2023-05-21T21:18:47.040Z,12.50
2023-05-21T21:21:13.626Z,13.77
2023-05-21T21:23:40.147Z,12.97
2023-05-21T21:26:06.633Z,14.83
2023-05-21T21:28:32.968Z,13.60
2023-05-21T21:30:59.400Z,12.50
2023-05-21T21:33:26.600Z,16.03
2023-05-21T21:35:53.163Z,15.27
2023-05-21T21:38:19.525Z,14.60
2023-05-21T21:40:45.861Z,14.63
2023-05-21T21:43:12.221Z,13.03
2023-05-21T21:45:38.645Z,14.97
2023-05-21T21:48:05.212Z,14.37
2023-05-21T21:50:31.663Z,17.30
2023-05-21T21:52:58.074Z,19.37
2023-05-21T21:55:24.430Z,16.73
2023-05-21T21:57:50.822Z,15.80
2023-05-21T22:00:17.444Z,16.33
2023-05-21T22:02:46.389Z,14.80
2023-05-21T22:05:15.740Z,15.10
2023-05-21T22:07:46.401Z,15.67
2023-05-21T22:10:14.752Z,14.27
2023-05-21T22:12:41.428Z,14.80
2023-05-21T22:15:08.831Z,14.60
2023-05-21T22:17:35.262Z,14.10
2023-05-21T22:20:01.675Z,17.20
2023-05-21T22:22:28.233Z,16.73
2023-05-21T22:24:54.678Z,16.40
2023-05-21T22:27:21.138Z,16.00
2023-05-21T22:29:47.625Z,16.17
2023-05-21T22:32:14.025Z,16.30
2023-05-21T22:34:41.748Z,15.00
2023-05-21T22:37:08.093Z,18.20
2023-05-21T22:39:34.493Z,17.93
2023-05-21T22:42:00.855Z,16.33
2023-05-21T22:44:27.277Z,18.53
2023-05-21T22:46:56.343Z,17.27
2023-05-21T22:49:22.966Z,16.87
2023-05-21T22:51:50.961Z,18.03
2023-05-21T22:54:17.490Z,18.17
2023-05-21T22:56:44.863Z,18.80
2023-05-21T22:59:11.272Z,21.10
2023-05-21T23:01:38.316Z,24.07
2023-05-21T23:04:05.023Z,20.60
2023-05-21T23:06:31.732Z,18.63
2023-05-21T23:08:58.193Z,20.30
2023-05-21T23:11:24.658Z,18.80
2023-05-21T23:13:51.055Z,23.97
2023-05-21T23:16:17.539Z,21.57
2023-05-21T23:18:44.026Z,20.47
2023-05-21T23:21:10.684Z,23.30
2023-05-21T23:23:37.098Z,23.37
2023-05-21T23:26:03.465Z,20.43
2023-05-21T23:28:29.819Z,19.47
2023-05-21T23:30:56.144Z,20.70
2023-05-21T23:33:22.505Z,22.03
2023-05-21T23:35:48.903Z,25.40
2023-05-21T23:38:15.320Z,20.37
2023-05-21T23:40:42.062Z,22.70
2023-05-21T23:43:08.462Z,22.83
2023-05-21T23:45:34.856Z,23.53
2023-05-21T23:48:01.283Z,21.03
2023-05-21T23:50:27.730Z,22.37
2023-05-21T23:52:54.167Z,20.27
2023-05-21T23:55:20.612Z,19.50
2023-05-21T23:57:47.015Z,18.83
